Time;durP1;ratioP1;P1;durP2;ratioP2;P2;SDS_P1;SDS_P2;PMS_P1;PMS_P2;Temp;Humidity;BMP_temperature;BMP_pressure;BME280_temperature;BME280_humidity;BME280_pressure;Samples;Min_cycle;Max_cycle;Signal;HPM_P1;HPM_P2
2022/11/20 00:00:08;;;;;;;43.72;26.92;;;21.90;35.60;;;;;;7731454;22;83899;-61
2022/11/20 00:03:08;;;;;;;41.85;27.15;;;21.80;35.60;;;;;;7730792;22;84045;-61
2022/11/20 00:06:09;;;;;;;42.58;27.77;;;21.80;35.60;;;;;;7730018;22;84638;-62
2022/11/20 00:09:09;;;;;;;44.35;28.75;;;21.80;35.70;;;;;;7729343;22;84143;-61
2022/11/20 00:12:10;;;;;;;39.70;26.80;;;21.80;35.60;;;;;;7728817;22;83464;-60
2022/11/20 00:15:10;;;;;;;40.47;26.50;;;21.80;35.70;;;;;;7731929;22;84202;-60
2022/11/20 00:18:11;;;;;;;43.63;27.17;;;21.80;35.80;;;;;;7730873;22;83948;-61
2022/11/20 00:21:11;;;;;;;41.55;27.27;;;21.80;35.70;;;;;;7727052;22;84540;-60
2022/11/20 00:24:12;;;;;;;41.15;27.52;;;21.80;35.70;;;;;;7727748;22;84111;-60
2022/11/20 00:27:13;;;;;;;39.38;26.35;;;21.80;35.70;;;;;;7731174;22;83746;-61
2022/11/20 00:30:13;;;;;;;39.80;26.52;;;21.80;35.60;;;;;;7727133;22;84190;-60
2022/11/20 00:33:14;;;;;;;38.70;25.83;;;21.80;35.70;;;;;;7725346;22;84137;-61
2022/11/20 00:36:14;;;;;;;42.95;28.08;;;21.80;35.70;;;;;;7727195;22;84168;-59
2022/11/20 00:39:15;;;;;;;39.65;25.52;;;21.80;35.80;;;;;;7722789;22;84527;-58
2022/11/20 00:42:15;;;;;;;40.33;25.73;;;21.80;35.70;;;;;;7728287;22;83809;-59
2022/11/20 00:45:16;;;;;;;41.30;27.23;;;21.80;35.80;;;;;;7732589;22;84312;-58
2022/11/20 00:48:16;;;;;;;40.65;27.77;;;21.80;35.80;;;;;;7726809;22;84736;-59
2022/11/20 00:51:17;;;;;;;44.65;27.70;;;21.80;35.80;;;;;;7729001;22;83293;-59
2022/11/20 00:54:17;;;;;;;39.50;25.98;;;21.80;35.80;;;;;;7733630;22;83723;-59
2022/11/20 00:57:18;;;;;;;41.17;27.13;;;21.80;35.90;;;;;;7729617;22;84149;-59
2022/11/20 01:00:18;;;;;;;39.15;25.95;;;21.80;35.90;;;;;;7726016;22;84434;-58
2022/11/20 01:03:19;;;;;;;43.38;26.00;;;21.80;36.00;;;;;;7732191;22;85027;-60
2022/11/20 01:06:20;;;;;;;37.78;26.15;;;21.80;36.00;;;;;;7724149;22;84204;-61
2022/11/20 01:09:20;;;;;;;42.85;27.00;;;21.70;36.00;;;;;;7732020;22;83701;-61
2022/11/20 01:12:20;;;;;;;38.83;25.42;;;21.70;36.10;;;;;;7725276;22;84583;-61
2022/11/20 01:15:21;;;;;;;41.30;26.52;;;21.80;36.10;;;;;;7745737;22;83566;-61
2022/11/20 01:18:21;;;;;;;38.13;24.60;;;21.80;36.00;;;;;;7740958;22;84794;-61
2022/11/20 01:21:22;;;;;;;42.10;26.48;;;21.70;36.10;;;;;;7744603;22;89042;-61
2022/11/20 01:24:22;;;;;;;40.63;25.75;;;21.70;36.30;;;;;;7740188;22;83330;-61
2022/11/20 01:27:23;;;;;;;42.15;25.88;;;21.70;36.20;;;;;;7749671;22;82974;-61
2022/11/20 01:30:23;;;;;;;44.53;28.02;;;21.70;36.10;;;;;;7748097;22;85063;-61
2022/11/20 01:33:24;;;;;;;40.50;25.92;;;21.70;36.00;;;;;;7747928;22;83130;-61
2022/11/20 01:36:24;;;;;;;40.80;26.83;;;21.70;36.00;;;;;;7748096;22;84204;-60
2022/11/20 01:39:25;;;;;;;43.17;28.45;;;21.70;35.90;;;;;;7750512;22;83894;-61
2022/11/20 01:45:45;;;;;;;43.70;28.25;;;21.70;35.90;;;;;;7720701;22;84519;-60
2022/11/20 01:48:45;;;;;;;38.53;25.98;;;21.70;35.80;;;;;;7749612;22;83061;-60
2022/11/20 01:51:46;;;;;;;44.78;28.58;;;21.70;35.80;;;;;;7747731;22;84688;-60
2022/11/20 01:54:46;;;;;;;44.85;27.50;;;21.70;35.80;;;;;;7750779;22;83342;-60
2022/11/20 01:57:47;;;;;;;40.33;26.77;;;21.70;36.00;;;;;;7749376;22;83145;-60
2022/11/20 02:00:47;;;;;;;42.63;27.70;;;21.70;35.80;;;;;;7745728;22;87314;-60
2022/11/20 02:03:47;;;;;;;45.50;29.25;;;21.70;35.80;;;;;;7749195;22;83340;-59
2022/11/20 02:06:48;;;;;;;41.30;27.10;;;21.70;35.70;;;;;;7750014;22;85031;-60
2022/11/20 02:09:48;;;;;;;43.33;28.92;;;21.70;35.60;;;;;;7748275;22;82871;-60
2022/11/20 02:16:08;;;;;;;40.22;28.23;;;21.70;35.70;;;;;;7749154;22;83479;-60
2022/11/20 02:19:09;;;;;;;43.10;28.88;;;21.70;35.70;;;;;;7749342;22;83433;-60
2022/11/20 02:22:09;;;;;;;42.83;28.33;;;21.70;35.70;;;;;;7748467;22;84649;-60
2022/11/20 02:25:10;;;;;;;43.58;28.27;;;21.70;35.70;;;;;;7747997;22;83196;-60
2022/11/20 02:28:10;;;;;;;43.13;28.27;;;21.70;35.50;;;;;;7746530;22;83036;-60
2022/11/20 02:31:10;;;;;;;41.30;28.13;;;21.60;35.40;;;;;;7746567;22;82841;-60
2022/11/20 02:34:11;;;;;;;42.47;27.33;;;21.60;35.50;;;;;;7744304;22;83781;-60
2022/11/20 02:37:11;;;;;;;41.00;26.38;;;21.60;35.40;;;;;;7743594;22;83456;-60
2022/11/20 02:40:12;;;;;;;41.67;27.98;;;21.60;35.40;;;;;;7745564;22;83410;-60
2022/11/20 02:43:12;;;;;;;42.88;28.98;;;21.60;35.30;;;;;;7747669;22;83381;-59
2022/11/20 02:46:13;;;;;;;45.47;28.55;;;21.60;35.40;;;;;;7747547;22;83720;-60
2022/11/20 02:49:13;;;;;;;39.63;26.55;;;21.60;35.30;;;;;;7749634;22;83825;-59
2022/11/20 02:52:14;;;;;;;41.95;27.88;;;21.60;35.20;;;;;;7744755;22;84243;-58
2022/11/20 02:55:14;;;;;;;41.95;26.45;;;21.60;35.30;;;;;;7750233;22;83137;-59
2022/11/20 02:58:15;;;;;;;44.50;27.27;;;21.60;35.20;;;;;;7749045;22;83033;-72
2022/11/20 03:01:15;;;;;;;43.85;28.55;;;21.60;35.20;;;;;;7749848;22;82885;-73
2022/11/20 03:04:16;;;;;;;43.63;28.65;;;21.50;35.10;;;;;;7748157;22;85206;-74
2022/11/20 03:07:16;;;;;;;42.63;27.38;;;21.50;35.10;;;;;;7748687;22;83109;-72
2022/11/20 03:10:17;;;;;;;43.10;26.60;;;21.50;35.00;;;;;;7749949;22;83124;-72
2022/11/20 03:13:17;;;;;;;40.47;27.52;;;21.50;35.10;;;;;;7748784;22;83411;-72
2022/11/20 03:16:18;;;;;;;39.80;27.10;;;21.50;35.00;;;;;;7749411;22;83069;-71
2022/11/20 03:19:18;;;;;;;43.38;28.13;;;21.50;34.90;;;;;;7749237;22;83087;-71
2022/11/20 03:22:19;;;;;;;42.42;27.35;;;21.50;35.00;;;;;;7748757;22;83654;-71
2022/11/20 03:25:19;;;;;;;45.67;28.40;;;21.50;34.90;;;;;;7721113;22;86123;-71
2022/11/20 03:28:20;;;;;;;42.30;27.77;;;21.50;35.00;;;;;;7747607;22;85011;-73
2022/11/20 03:31:20;;;;;;;44.03;28.70;;;21.50;35.00;;;;;;7749697;22;83138;-70
2022/11/20 03:34:20;;;;;;;43.05;28.30;;;21.50;35.00;;;;;;7745468;22;82924;-72
2022/11/20 03:37:21;;;;;;;44.75;28.70;;;21.50;35.00;;;;;;7747030;22;83460;-73
2022/11/20 03:40:21;;;;;;;44.53;28.60;;;21.50;35.00;;;;;;7749217;22;83130;-72
2022/11/20 03:43:22;;;;;;;45.78;29.85;;;21.50;34.90;;;;;;7720945;22;83239;-74
2022/11/20 03:46:22;;;;;;;40.65;26.70;;;21.50;35.00;;;;;;7747477;22;83373;-74
2022/11/20 03:49:23;;;;;;;44.40;29.02;;;21.50;35.00;;;;;;7749799;22;84374;-68
2022/11/20 03:52:23;;;;;;;40.38;25.55;;;21.50;35.10;;;;;;7750226;22;82994;-67
2022/11/20 03:55:24;;;;;;;37.95;24.35;;;21.50;36.30;;;;;;7747525;22;83605;-69
2022/11/20 03:58:24;;;;;;;36.72;24.25;;;21.50;37.20;;;;;;7749903;22;83890;-67
2022/11/20 04:01:25;;;;;;;39.15;25.10;;;21.60;38.00;;;;;;7746744;22;83405;-71
2022/11/20 04:04:25;;;;;;;36.15;24.33;;;21.60;38.20;;;;;;7749524;22;84811;-68
2022/11/20 04:07:26;;;;;;;37.53;24.27;;;21.60;38.50;;;;;;7748652;22;83036;-66
2022/11/20 04:10:26;;;;;;;41.60;25.58;;;21.60;38.80;;;;;;7748685;22;82625;-60
2022/11/20 04:13:27;;;;;;;33.92;23.50;;;21.60;38.20;;;;;;7750058;22;82572;-61
2022/11/20 04:16:27;;;;;;;40.50;24.95;;;21.60;39.00;;;;;;7750179;22;82925;-61
2022/11/20 04:19:28;;;;;;;41.45;26.27;;;21.60;38.00;;;;;;7746576;22;83836;-62
2022/11/20 04:22:28;;;;;;;40.55;26.52;;;21.70;37.40;;;;;;7750543;22;82801;-62
2022/11/20 04:25:29;;;;;;;41.75;26.90;;;21.70;37.10;;;;;;7752575;22;84021;-61
2022/11/20 04:28:29;;;;;;;40.42;26.75;;;21.80;36.40;;;;;;7749095;22;82842;-61
2022/11/20 04:31:30;;;;;;;39.90;27.50;;;21.90;36.00;;;;;;7749442;22;83408;-60
2022/11/20 04:34:30;;;;;;;44.25;27.88;;;21.90;35.70;;;;;;7750671;22;83117;-60
2022/11/20 04:37:31;;;;;;;47.30;28.35;;;22.00;35.30;;;;;;7752772;22;82755;-61
2022/11/20 04:40:31;;;;;;;44.08;27.25;;;22.00;35.20;;;;;;7750888;22;82998;-60
2022/11/20 04:43:32;;;;;;;42.13;28.15;;;22.10;34.90;;;;;;7748284;22;82987;-60
2022/11/20 04:46:32;;;;;;;39.22;27.25;;;22.10;34.80;;;;;;7749991;22;82985;-70
2022/11/20 04:49:33;;;;;;;44.00;28.45;;;22.10;34.50;;;;;;7749635;22;83617;-67
2022/11/20 04:52:34;;;;;;;40.85;27.88;;;22.20;34.50;;;;;;7751280;22;83591;-67
2022/11/20 04:55:34;;;;;;;42.05;26.70;;;22.20;34.20;;;;;;7751864;22;83365;-67
2022/11/20 04:58:35;;;;;;;44.00;28.73;;;22.20;34.20;;;;;;7747565;22;83881;-68
2022/11/20 05:01:35;;;;;;;41.45;28.25;;;22.30;34.10;;;;;;7752628;22;83777;-66
2022/11/20 05:04:36;;;;;;;40.30;27.20;;;22.30;34.00;;;;;;7720895;22;86322;-59
2022/11/20 05:07:36;;;;;;;40.70;27.35;;;22.30;33.80;;;;;;7751276;22;83228;-59
2022/11/20 05:10:37;;;;;;;44.92;27.52;;;22.30;33.80;;;;;;7748426;22;83341;-59
2022/11/20 05:13:37;;;;;;;41.25;26.83;;;22.30;33.70;;;;;;7748461;22;84978;-59
2022/11/20 05:16:38;;;;;;;43.80;28.80;;;22.40;33.60;;;;;;7749923;22;84020;-59
2022/11/20 05:19:38;;;;;;;40.78;27.02;;;22.40;33.70;;;;;;7748554;22;83169;-58
2022/11/20 05:22:39;;;;;;;37.38;25.20;;;22.40;33.70;;;;;;7748679;22;83344;-60
2022/11/20 05:25:39;;;;;;;42.40;27.60;;;22.40;33.60;;;;;;7747950;22;83672;-59
2022/11/20 05:28:40;;;;;;;42.45;27.50;;;22.50;33.60;;;;;;7752210;22;84062;-63
2022/11/20 05:31:40;;;;;;;40.88;26.63;;;22.50;33.80;;;;;;7749016;22;83516;-60
2022/11/20 05:34:40;;;;;;;41.90;26.77;;;22.50;34.10;;;;;;7749718;22;83252;-60
2022/11/20 05:37:41;;;;;;;39.67;26.30;;;22.50;34.40;;;;;;7746935;22;82929;-60
2022/11/20 05:40:41;;;;;;;42.35;26.27;;;22.50;34.60;;;;;;7749732;22;83112;-60
2022/11/20 05:43:42;;;;;;;42.55;28.17;;;22.50;34.80;;;;;;7749005;22;83101;-59
2022/11/20 05:46:42;;;;;;;43.40;27.73;;;22.50;34.70;;;;;;7750902;22;83160;-60
2022/11/20 05:49:43;;;;;;;39.10;25.85;;;22.50;34.70;;;;;;7715944;22;84070;-59
2022/11/20 05:52:43;;;;;;;41.70;27.10;;;22.50;35.00;;;;;;7745090;22;82941;-59
2022/11/20 05:55:44;;;;;;;44.15;27.17;;;22.50;35.30;;;;;;7745428;22;83651;-60
2022/11/20 05:58:45;;;;;;;37.45;25.98;;;22.60;35.10;;;;;;7745363;22;83420;-60
2022/11/20 06:01:45;;;;;;;42.28;27.30;;;22.60;35.50;;;;;;7750673;22;84442;-59
2022/11/20 06:04:46;;;;;;;37.45;26.10;;;22.60;35.30;;;;;;7750882;22;83351;-59
2022/11/20 06:07:46;;;;;;;41.65;26.13;;;22.60;35.70;;;;;;7747300;22;83698;-60
2022/11/20 06:10:47;;;;;;;44.08;27.48;;;22.60;35.80;;;;;;7749207;22;83543;-59
2022/11/20 06:13:47;;;;;;;40.92;26.52;;;22.60;35.80;;;;;;7747830;22;84657;-61
2022/11/20 06:16:48;;;;;;;43.28;27.38;;;22.60;35.40;;;;;;7749750;22;83118;-67
2022/11/20 06:19:48;;;;;;;44.47;28.10;;;22.50;35.20;;;;;;7750064;22;83596;-62
2022/11/20 06:22:48;;;;;;;49.88;29.67;;;22.50;35.30;;;;;;7747874;22;83073;-63
2022/11/20 06:25:49;;;;;;;45.45;28.05;;;22.50;35.00;;;;;;7743042;22;84237;-62
2022/11/20 06:28:50;;;;;;;46.85;29.08;;;22.50;35.10;;;;;;7734626;22;83833;-62
2022/11/20 06:31:50;;;;;;;47.55;30.30;;;22.40;34.90;;;;;;7739311;22;83070;-62
2022/11/20 06:34:50;;;;;;;50.47;29.77;;;22.40;35.10;;;;;;7741521;22;83428;-61
2022/11/20 06:37:51;;;;;;;44.92;27.95;;;22.40;35.10;;;;;;7731695;22;83738;-61
2022/11/20 06:40:51;;;;;;;45.92;29.75;;;22.40;35.10;;;;;;7737330;22;84231;-60
2022/11/20 06:43:52;;;;;;;47.08;29.83;;;22.30;34.60;;;;;;7746415;22;83913;-62
2022/11/20 06:46:52;;;;;;;49.35;29.98;;;22.30;34.70;;;;;;7739327;22;87793;-61
2022/11/20 06:49:53;;;;;;;48.33;30.00;;;22.30;34.50;;;;;;7745587;22;83870;-62
2022/11/20 06:52:54;;;;;;;48.67;28.83;;;22.30;34.50;;;;;;7741028;22;84148;-62
2022/11/20 06:55:54;;;;;;;49.88;29.27;;;22.30;34.70;;;;;;7746156;22;84754;-69
2022/11/20 06:58:55;;;;;;;51.10;30.42;;;22.30;34.80;;;;;;7742088;22;84619;-67
2022/11/20 07:01:55;;;;;;;46.20;29.63;;;22.30;35.80;;;;;;7746475;22;83703;-67
2022/11/20 07:04:55;;;;;;;51.67;29.58;;;22.30;35.40;;;;;;7745907;22;82695;-67
2022/11/20 07:07:56;;;;;;;46.88;27.98;;;22.30;36.30;;;;;;7748545;22;82594;-67
2022/11/20 07:10:56;;;;;;;47.63;29.00;;;22.30;36.40;;;;;;7745166;22;82915;-78
2022/11/20 07:13:57;;;;;;;49.40;30.08;;;22.20;36.00;;;;;;7748911;22;83323;-66
2022/11/20 07:16:57;;;;;;;49.17;29.92;;;22.20;35.80;;;;;;7747826;22;83756;-66
2022/11/20 07:19:58;;;;;;;46.45;28.75;;;22.20;35.80;;;;;;7748905;22;83456;-69
2022/11/20 07:22:58;;;;;;;48.28;28.40;;;22.10;35.70;;;;;;7748167;22;83553;-74
2022/11/20 07:25:59;;;;;;;48.25;29.55;;;22.10;35.80;;;;;;7746481;22;84242;-68
2022/11/20 07:28:59;;;;;;;44.67;29.52;;;22.10;35.80;;;;;;7743564;22;84300;-63
2022/11/20 07:32:00;;;;;;;46.20;31.10;;;22.10;35.80;;;;;;7744715;22;83331;-71
2022/11/20 07:35:00;;;;;;;50.13;31.67;;;22.10;36.30;;;;;;7744474;22;83408;-72
2022/11/20 07:38:01;;;;;;;55.88;33.08;;;22.10;36.50;;;;;;7744889;22;84281;-63
2022/11/20 07:41:01;;;;;;;62.92;33.58;;;22.00;36.60;;;;;;7740811;22;83212;-67
2022/11/20 07:44:02;;;;;;;51.00;33.45;;;22.00;37.00;;;;;;7743450;22;83254;-67
2022/11/20 07:47:02;;;;;;;56.08;33.97;;;22.00;37.30;;;;;;7750453;22;83216;-63
2022/11/20 07:50:03;;;;;;;56.10;34.60;;;22.00;37.30;;;;;;7746353;22;83810;-68
2022/11/20 07:53:03;;;;;;;52.75;33.85;;;22.00;37.80;;;;;;7715449;22;86324;-69
2022/11/20 07:56:04;;;;;;;55.30;34.58;;;22.00;38.20;;;;;;7743372;22;84573;-69
2022/11/20 07:59:04;;;;;;;51.67;33.80;;;22.00;38.50;;;;;;7746843;22;82931;-68
2022/11/20 08:02:05;;;;;;;49.75;31.27;;;22.10;38.50;;;;;;7738375;22;83606;-69
2022/11/20 08:05:05;;;;;;;40.53;25.27;;;22.10;38.60;;;;;;7748311;22;82903;-67
2022/11/20 08:08:07;;;;;;;38.45;25.08;;;22.00;39.50;;;;;;7748117;22;83570;-61
2022/11/20 08:14:27;;;;;;;27.90;18.85;;;22.00;40.30;;;;;;7748740;22;84325;-60
2022/11/20 08:17:28;;;;;;;31.75;19.33;;;21.90;41.00;;;;;;7748708;22;83318;-61
2022/11/20 08:20:28;;;;;;;28.75;18.63;;;22.00;41.50;;;;;;7737245;22;83312;-61
2022/11/20 08:23:29;;;;;;;30.60;17.98;;;21.90;42.10;;;;;;7739003;22;83126;-60
2022/11/20 08:26:29;;;;;;;25.15;16.52;;;21.90;42.70;;;;;;7738326;22;84026;-68
2022/11/20 08:29:30;;;;;;;24.58;16.98;;;21.80;42.70;;;;;;7738338;22;83479;-64
2022/11/20 08:32:30;;;;;;;23.77;15.93;;;21.80;43.50;;;;;;7738456;22;83038;-64
2022/11/20 08:35:31;;;;;;;23.02;15.05;;;21.80;43.80;;;;;;7737200;22;84243;-66
2022/11/20 08:38:31;;;;;;;20.67;13.98;;;21.90;43.40;;;;;;7738549;22;83139;-67
2022/11/20 08:41:32;;;;;;;20.83;14.15;;;21.90;44.20;;;;;;7741027;22;84630;-66
2022/11/20 08:44:33;;;;;;;20.77;13.57;;;21.90;44.10;;;;;;7723373;22;84178;-68
2022/11/20 08:47:33;;;;;;;25.48;16.08;;;22.00;44.10;;;;;;7744420;22;83294;-70
2022/11/20 08:50:34;;;;;;;21.13;14.40;;;22.00;43.70;;;;;;7745119;22;83940;-64
2022/11/20 08:53:34;;;;;;;23.00;15.40;;;22.00;44.20;;;;;;7740475;22;85234;-67
2022/11/20 08:56:35;;;;;;;24.33;15.05;;;22.00;43.50;;;;;;7748497;22;89862;-67
2022/11/20 08:59:35;;;;;;;22.90;15.60;;;22.00;44.20;;;;;;7746760;22;84166;-72
2022/11/20 09:02:36;;;;;;;24.30;15.27;;;22.10;44.20;;;;;;7743054;22;83445;-63
2022/11/20 09:05:36;;;;;;;23.10;15.15;;;22.10;44.10;;;;;;7746324;22;84453;-67
2022/11/20 09:08:37;;;;;;;23.08;15.98;;;22.20;44.20;;;;;;7745547;22;83186;-74
2022/11/20 09:11:37;;;;;;;24.33;15.45;;;22.20;44.00;;;;;;7717897;22;84061;-68
2022/11/20 09:14:38;;;;;;;22.65;15.15;;;22.20;43.80;;;;;;7748537;22;83359;-64
2022/11/20 09:17:38;;;;;;;26.17;16.90;;;22.30;43.70;;;;;;7745019;22;83589;-73
2022/11/20 09:20:39;;;;;;;25.65;16.92;;;22.30;44.30;;;;;;7745626;22;83238;-71
2022/11/20 09:23:40;;;;;;;23.25;16.20;;;22.20;44.20;;;;;;7745673;22;89527;-71
2022/11/20 09:26:40;;;;;;;27.35;18.13;;;22.30;44.30;;;;;;7745513;22;84053;-71
2022/11/20 09:29:41;;;;;;;25.08;16.95;;;22.20;44.10;;;;;;7745664;22;83254;-67
2022/11/20 09:32:41;;;;;;;25.25;16.88;;;22.20;44.50;;;;;;7746078;22;83555;-73
2022/11/20 09:35:43;;;;;;;24.40;15.93;;;22.20;44.20;;;;;;7744318;22;83463;-74
2022/11/20 09:38:43;;;;;;;23.90;16.35;;;22.30;44.50;;;;;;7748025;22;83026;-73
2022/11/20 09:41:45;;;;;;;32.65;17.27;;;22.30;44.60;;;;;;7716978;22;82976;-71
2022/11/20 09:44:46;;;;;;;24.00;15.50;;;22.30;44.40;;;;;;7743221;22;83714;-61
2022/11/20 09:47:46;;;;;;;24.67;15.40;;;22.30;44.90;;;;;;7748154;22;83374;-64
2022/11/20 09:50:47;;;;;;;22.73;13.68;;;22.20;45.00;;;;;;7747819;22;82913;-65
2022/11/20 09:53:48;;;;;;;22.00;14.65;;;22.30;45.40;;;;;;7739952;22;83432;-68
2022/11/20 09:56:48;;;;;;;25.17;13.80;;;22.30;45.80;;;;;;7745464;22;84649;-61
2022/11/20 09:59:49;;;;;;;21.60;13.85;;;22.30;45.70;;;;;;7743620;22;82713;-57
2022/11/20 10:02:49;;;;;;;22.20;14.13;;;22.30;45.70;;;;;;7737564;22;83843;-55
2022/11/20 10:05:50;;;;;;;21.98;14.05;;;22.30;46.20;;;;;;7742918;22;90500;-62
2022/11/20 10:08:50;;;;;;;22.77;15.25;;;22.30;45.90;;;;;;7732553;22;83932;-60
2022/11/20 10:11:51;;;;;;;25.05;16.52;;;22.30;46.10;;;;;;7746515;22;85138;-61
2022/11/20 10:14:51;;;;;;;23.70;14.52;;;22.30;46.40;;;;;;7721174;22;83009;-58
2022/11/20 10:17:52;;;;;;;24.30;13.88;;;22.30;46.20;;;;;;7746999;22;83250;-60
2022/11/20 10:20:52;;;;;;;24.23;16.05;;;22.30;46.30;;;;;;7731828;22;83994;-58
2022/11/20 10:23:53;;;;;;;21.85;14.65;;;22.30;46.50;;;;;;7737671;22;83573;-60
2022/11/20 10:26:53;;;;;;;21.40;14.68;;;22.30;46.40;;;;;;7746605;22;83129;-59
2022/11/20 10:29:54;;;;;;;19.98;14.02;;;22.30;46.80;;;;;;7746299;22;83511;-60
2022/11/20 10:32:54;;;;;;;21.88;14.20;;;22.30;47.20;;;;;;7749201;22;82827;-59
2022/11/20 10:35:55;;;;;;;22.85;15.00;;;22.30;47.20;;;;;;7752256;22;83432;-58
2022/11/20 10:38:55;;;;;;;20.98;14.35;;;22.30;47.30;;;;;;7744732;22;83039;-59
2022/11/20 10:41:56;;;;;;;21.80;14.68;;;22.30;47.40;;;;;;7724279;22;85817;-58
2022/11/20 10:45:02;;;;;;;20.77;13.75;;;22.30;47.50;;;;;;7747060;22;84095;-59
2022/11/20 10:48:03;;;;;;;23.08;15.38;;;22.30;47.60;;;;;;7749736;22;83709;-61
2022/11/20 10:51:04;;;;;;;18.25;13.25;;;22.20;47.60;;;;;;7747731;22;83094;-60
2022/11/20 10:54:05;;;;;;;21.63;15.00;;;22.20;47.90;;;;;;7750867;22;83703;-62
2022/11/20 10:57:05;;;;;;;24.42;13.98;;;22.20;47.90;;;;;;7748369;22;84559;-63
2022/11/20 11:00:06;;;;;;;21.27;14.32;;;22.20;48.00;;;;;;7748913;22;84247;-61
2022/11/20 11:03:06;;;;;;;21.13;14.10;;;22.20;48.00;;;;;;7750580;22;82921;-63
2022/11/20 11:06:07;;;;;;;20.27;14.20;;;22.20;48.30;;;;;;7746473;22;84663;-62
2022/11/20 11:09:07;;;;;;;23.05;15.13;;;22.20;48.40;;;;;;7748849;22;82890;-60
2022/11/20 11:12:08;;;;;;;22.15;14.70;;;22.10;48.20;;;;;;7747768;22;83303;-62
2022/11/20 11:15:08;;;;;;;24.80;14.55;;;22.10;48.40;;;;;;7748153;22;82941;-60
2022/11/20 11:18:09;;;;;;;21.55;14.25;;;22.10;48.40;;;;;;7750548;22;83361;-62
2022/11/20 11:21:09;;;;;;;23.85;14.70;;;22.10;48.70;;;;;;7742534;22;82823;-61
2022/11/20 11:24:10;;;;;;;22.83;14.88;;;22.10;48.70;;;;;;7746660;22;84254;-59
2022/11/20 11:27:10;;;;;;;23.10;15.38;;;22.10;48.90;;;;;;7750088;22;83008;-61
2022/11/20 11:30:11;;;;;;;27.33;16.02;;;22.10;49.00;;;;;;7750016;22;83316;-61
2022/11/20 11:33:11;;;;;;;25.15;15.68;;;22.10;48.70;;;;;;7751731;22;82906;-60
2022/11/20 11:36:12;;;;;;;23.63;15.25;;;22.10;49.10;;;;;;7743087;22;83174;-60
2022/11/20 11:39:12;;;;;;;28.25;17.05;;;22.10;49.80;;;;;;7741208;22;83654;-61
2022/11/20 11:42:13;;;;;;;25.33;16.15;;;22.10;49.80;;;;;;7749367;22;82637;-61
2022/11/20 11:45:13;;;;;;;28.60;17.20;;;22.10;49.40;;;;;;7748422;22;84249;-66
2022/11/20 11:48:14;;;;;;;29.58;17.23;;;22.10;49.30;;;;;;7736769;22;83140;-63
2022/11/20 11:51:14;;;;;;;26.30;16.85;;;22.20;49.30;;;;;;7738932;22;83481;-59
2022/11/20 11:54:14;;;;;;;29.05;16.77;;;22.20;49.00;;;;;;7743786;22;82929;-61
2022/11/20 11:57:15;;;;;;;24.83;16.10;;;22.30;48.80;;;;;;7744949;22;83322;-61
2022/11/20 12:00:16;;;;;;;26.02;16.33;;;22.30;49.10;;;;;;7743076;22;84068;-62
2022/11/20 12:03:16;;;;;;;28.27;17.05;;;22.30;48.90;;;;;;7745310;22;84284;-62
2022/11/20 12:06:16;;;;;;;26.02;16.63;;;22.40;48.90;;;;;;7740849;22;83601;-61
2022/11/20 12:09:17;;;;;;;26.52;16.85;;;22.40;48.80;;;;;;7740107;22;83497;-60
2022/11/20 12:12:17;;;;;;;27.90;17.85;;;22.40;48.70;;;;;;7738510;22;84799;-60
2022/11/20 12:15:18;;;;;;;26.77;18.45;;;22.50;48.70;;;;;;7739440;22;83388;-60
2022/11/20 12:18:18;;;;;;;25.63;17.33;;;22.50;48.60;;;;;;7739573;22;83552;-59
2022/11/20 12:21:20;;;;;;;23.55;16.48;;;22.50;48.80;;;;;;7739840;22;84391;-59
2022/11/20 12:24:20;;;;;;;25.70;17.08;;;22.50;48.80;;;;;;7743710;22;83377;-61
2022/11/20 12:27:21;;;;;;;27.55;17.50;;;22.50;49.00;;;;;;7745050;22;83616;-75
2022/11/20 12:30:21;;;;;;;25.33;16.63;;;22.60;49.30;;;;;;7746707;22;83507;-71
2022/11/20 12:33:22;;;;;;;25.92;16.30;;;22.60;49.30;;;;;;7748446;22;83416;-74
2022/11/20 12:36:22;;;;;;;26.50;17.73;;;22.60;49.30;;;;;;7739774;22;83748;-74
2022/11/20 12:39:23;;;;;;;26.85;16.70;;;22.60;49.00;;;;;;7739031;22;82710;-70
2022/11/20 12:45:42;;;;;;;26.30;17.65;;;22.60;48.90;;;;;;7737352;22;83887;-74
2022/11/20 12:48:43;;;;;;;28.60;17.48;;;22.60;48.70;;;;;;7748220;22;82712;-73
2022/11/20 12:51:43;;;;;;;31.35;21.50;;;22.60;48.30;;;;;;7745616;22;83514;-69
2022/11/20 12:54:44;;;;;;;29.42;19.92;;;22.50;47.60;;;;;;7742368;22;83776;-69
2022/11/20 12:57:44;;;;;;;33.42;21.77;;;22.50;47.40;;;;;;7735579;22;83111;-67
2022/11/20 13:00:45;;;;;;;30.98;20.67;;;22.50;46.70;;;;;;7746744;22;82883;-67
2022/11/20 13:03:45;;;;;;;32.22;21.95;;;22.50;46.60;;;;;;7746745;22;84534;-62
2022/11/20 13:06:46;;;;;;;34.72;23.05;;;22.40;46.50;;;;;;7746355;22;83601;-61
2022/11/20 13:09:46;;;;;;;33.28;21.38;;;22.40;46.40;;;;;;7745259;22;83078;-62
2022/11/20 13:12:47;;;;;;;36.60;21.92;;;22.40;46.60;;;;;;7733068;22;83853;-58
2022/11/20 13:15:47;;;;;;;32.88;22.50;;;22.40;46.70;;;;;;7744952;22;83085;-59
2022/11/20 13:18:49;;;;;;;35.40;24.00;;;22.40;46.60;;;;;;7745948;22;83036;-60
2022/11/20 13:21:50;;;;;;;36.55;22.45;;;22.30;47.10;;;;;;7744343;22;83010;-62
2022/11/20 13:24:50;;;;;;;36.97;22.08;;;22.30;46.20;;;;;;7736123;22;84297;-63
2022/11/20 13:27:51;;;;;;;34.55;22.90;;;22.30;46.20;;;;;;7741095;22;84270;-66
2022/11/20 13:30:51;;;;;;;31.40;21.52;;;22.20;45.90;;;;;;7744647;22;83182;-63
2022/11/20 13:33:52;;;;;;;36.42;23.15;;;22.20;45.90;;;;;;7742578;22;83073;-66
2022/11/20 13:36:52;;;;;;;34.65;21.92;;;22.20;45.70;;;;;;7741622;22;83070;-63
2022/11/20 13:39:53;;;;;;;35.45;23.08;;;22.20;46.20;;;;;;7739307;22;82999;-64
2022/11/20 13:42:53;;;;;;;34.22;21.63;;;22.20;46.00;;;;;;7741304;22;83432;-61
2022/11/20 13:45:54;;;;;;;32.63;21.73;;;22.20;46.10;;;;;;7736899;22;83486;-61
2022/11/20 13:48:54;;;;;;;33.47;22.23;;;22.30;45.80;;;;;;7737104;22;84382;-63
2022/11/20 13:51:55;;;;;;;31.77;21.17;;;22.30;45.20;;;;;;7746660;22;83145;-63
2022/11/20 13:54:55;;;;;;;32.40;20.95;;;22.10;44.80;;;;;;7741180;22;83896;-62
2022/11/20 13:57:56;;;;;;;30.55;20.92;;;21.90;44.30;;;;;;7746935;22;83114;-64
2022/11/20 14:00:56;;;;;;;29.75;20.67;;;21.80;43.60;;;;;;7741163;22;83431;-65
2022/11/20 14:03:57;;;;;;;30.00;21.65;;;21.70;43.20;;;;;;7745043;22;83444;-68
2022/11/20 14:06:57;;;;;;;33.72;21.38;;;21.70;42.90;;;;;;7743087;22;83725;-61
2022/11/20 14:09:58;;;;;;;30.88;21.83;;;21.60;42.60;;;;;;7749265;22;83031;-63
2022/11/20 14:12:58;;;;;;;25.75;17.90;;;21.60;42.60;;;;;;7742952;22;83755;-67
2022/11/20 14:15:59;;;;;;;29.83;18.15;;;21.60;42.60;;;;;;7742612;22;82775;-66
2022/11/20 14:18:59;;;;;;;30.75;19.00;;;21.50;43.00;;;;;;7745786;22;83328;-65
2022/11/20 14:21:59;;;;;;;36.67;21.75;;;21.60;43.60;;;;;;7736740;22;82942;-64
2022/11/20 14:25:00;;;;;;;29.98;18.38;;;21.70;43.90;;;;;;7733314;22;83460;-66
2022/11/20 14:28:01;;;;;;;34.53;18.98;;;21.60;43.60;;;;;;7742483;22;84606;-66
2022/11/20 14:31:01;;;;;;;31.00;19.02;;;21.70;43.60;;;;;;7745498;22;83163;-66
2022/11/20 14:34:02;;;;;;;28.67;17.00;;;21.70;43.80;;;;;;7746571;22;83946;-69
2022/11/20 14:37:02;;;;;;;29.65;17.80;;;21.70;44.30;;;;;;7745223;22;83653;-59
2022/11/20 14:40:03;;;;;;;24.67;16.85;;;21.90;44.00;;;;;;7739157;22;83035;-61
2022/11/20 14:43:03;;;;;;;27.55;17.90;;;21.90;44.00;;;;;;7739719;22;83463;-60
2022/11/20 14:46:04;;;;;;;24.60;16.42;;;22.00;44.10;;;;;;7742962;22;83671;-60
2022/11/20 14:49:05;;;;;;;26.88;17.15;;;22.10;43.90;;;;;;7741284;22;83521;-60
2022/11/20 14:52:05;;;;;;;31.08;15.98;;;22.10;44.00;;;;;;7741440;22;83343;-61
2022/11/20 14:55:06;;;;;;;27.95;16.70;;;22.20;43.90;;;;;;7740495;22;84833;-59
2022/11/20 14:58:06;;;;;;;28.13;17.90;;;22.30;43.80;;;;;;7739707;22;83352;-60
2022/11/20 15:01:07;;;;;;;23.45;15.57;;;22.30;43.30;;;;;;7728775;22;84469;-58
2022/11/20 15:04:07;;;;;;;25.02;17.33;;;22.30;43.60;;;;;;7734071;22;83254;-59
2022/11/20 15:07:08;;;;;;;24.52;16.40;;;22.40;43.50;;;;;;7740218;22;83490;-60
2022/11/20 15:10:09;;;;;;;21.45;14.82;;;22.40;43.00;;;;;;7738984;22;83468;-59
2022/11/20 15:13:09;;;;;;;22.83;15.68;;;22.50;43.50;;;;;;7739605;22;83261;-60
2022/11/20 15:16:10;;;;;;;22.08;15.10;;;22.50;43.20;;;;;;7745396;22;83438;-59
2022/11/20 15:19:10;;;;;;;24.85;17.48;;;22.50;43.50;;;;;;7746516;22;83790;-59
2022/11/20 15:22:12;;;;;;;24.95;18.08;;;22.50;43.00;;;;;;7734018;22;83523;-59
2022/11/20 15:25:13;;;;;;;28.25;18.48;;;22.50;43.20;;;;;;7744272;22;83630;-60
2022/11/20 15:28:13;;;;;;;23.23;17.02;;;22.50;42.50;;;;;;7736065;22;84144;-59